Hunting, Wisconsin
Current Conditions -  °F | °C
As of 9:55 AM on Tuesday 21 Oct 2014 (Local Time) from KCLI Reporting Station
Overcast Overcast  
Wind Chill: 37°   Ceiling: 2200
Heat Index: 43°   Visibility: 10mi
Dew Point: 34°   Wind: 12mph
Humidity: 70%   Direction: 40°NE
Pressure: 30.24"   Gusts: NA
Location:  44.7254°N, 89.0642°W
Report Text: KCLI 211455Z AUTO 04010KT 10SM OVC022 06/01 A3024 RMK AO2
Loading
Personal Weather Stations






























Interactive Weather Map
Tropical Storm Tracking
New forecast layout! Learn more

10-Day Weather Forecast

Advertisements
Track Severe Weather on mobile